Current | Forecast
Updated: 8:00 PM JST on August 16, 2017
Observed at Miyakojima, Japan
Temperature 84°F
Humidity 84%
Dew Point 79°F
Wind SSW at 8 mph
Pressure 29.77 in (Steady)
Conditions Partly Cloudy
Visibility 6.2 miles
UV 0 out of 16
Clouds (FEW) : 1800 ft
Yesterday's Maximum 93°F
Yesterday's Minimum 82°F approx.
Yesterday's Cooling Degree Days 23 approx.
Sunrise6:13 AM JST
Sunset7:13 PM JST
Moon Rise12:33 AM JST
Moon Set2:02 PM JST
Moon PhaseMoon Phase
Waning Crescent
Raw METARMETAR ROMY 161100Z 20007KT 9999 FEW018 29/26 Q1008


Monday
. High: 80° F.
Tuesday
. High: 77° F.
Wednesday
. High: 76° F.
Thursday
. High: 78° F.
Friday
. High: 78° F.
Saturday
. High: 79° F.
Sunday
. High: 79° F.
Monday
. High: 80° F.

Units: English | Metric

Find the Weather for any City, State or Zipcode, or Country:

U.S. State List | Severe Weather | Tropical Storms | Ski Conditions
United States | Canada | Central America | South America | Asia | Europe | Australia | Africa | Islands

Weather Underground

© Copyright 2017
The Weather Company, LLC